sensor_id;sensor_type;location;lat;lon;timestamp;pressure;altitude;pressure_sealevel;temperature;humidity
4528;BME280;62320;51.520;6.818;2022-07-23T00:01:08;101346.31;;;17.88;88.41
4528;BME280;62320;51.520;6.818;2022-07-23T00:06:10;101343.75;;;17.87;90.31
4528;BME280;62320;51.520;6.818;2022-07-23T00:11:12;101332.09;;;17.58;89.31
4528;BME280;62320;51.520;6.818;2022-07-23T00:16:13;101339.06;;;17.59;87.35
4528;BME280;62320;51.520;6.818;2022-07-23T00:21:15;101348.72;;;17.57;88.78
4528;BME280;62320;51.520;6.818;2022-07-23T00:26:16;101325.06;;;17.62;84.24
4528;BME280;62320;51.520;6.818;2022-07-23T00:31:18;101334.94;;;17.46;86.60
4528;BME280;62320;51.520;6.818;2022-07-23T00:36:19;101326.63;;;17.25;90.11
4528;BME280;62320;51.520;6.818;2022-07-23T00:41:21;101306.84;;;17.11;90.09
4528;BME280;62320;51.520;6.818;2022-07-23T00:46:22;101317.09;;;17.22;87.13
4528;BME280;62320;51.520;6.818;2022-07-23T00:51:25;101326.53;;;17.31;88.05
4528;BME280;62320;51.520;6.818;2022-07-23T00:56:26;101335.88;;;17.42;83.80
4528;BME280;62320;51.520;6.818;2022-07-23T01:01:28;101331.78;;;17.31;88.74
4528;BME280;62320;51.520;6.818;2022-07-23T01:06:31;101338.88;;;17.23;87.28
4528;BME280;62320;51.520;6.818;2022-07-23T01:11:36;101321.81;;;17.03;87.59
4528;BME280;62320;51.520;6.818;2022-07-23T01:16:39;101347.69;;;17.16;86.63
4528;BME280;62320;51.520;6.818;2022-07-23T01:21:44;101339.69;;;17.26;85.32
4528;BME280;62320;51.520;6.818;2022-07-23T01:26:47;101325.09;;;17.15;86.96
4528;BME280;62320;51.520;6.818;2022-07-23T01:31:49;101314.94;;;16.98;89.79
4528;BME280;62320;51.520;6.818;2022-07-23T01:36:51;101338.16;;;17.15;86.29
4528;BME280;62320;51.520;6.818;2022-07-23T01:41:52;101327.63;;;17.19;82.36
4528;BME280;62320;51.520;6.818;2022-07-23T01:46:55;101322.47;;;17.13;85.55
4528;BME280;62320;51.520;6.818;2022-07-23T01:51:56;101318.28;;;17.04;89.79
4528;BME280;62320;51.520;6.818;2022-07-23T01:57:01;101326.88;;;17.11;85.58
4528;BME280;62320;51.520;6.818;2022-07-23T02:02:02;101327.03;;;17.03;82.60
4528;BME280;62320;51.520;6.818;2022-07-23T02:07:05;101327.00;;;17.05;86.00
4528;BME280;62320;51.520;6.818;2022-07-23T02:12:06;101312.44;;;16.92;85.00
4528;BME280;62320;51.520;6.818;2022-07-23T02:17:08;101322.22;;;16.79;87.44
4528;BME280;62320;51.520;6.818;2022-07-23T02:22:09;101328.34;;;16.78;86.88
4528;BME280;62320;51.520;6.818;2022-07-23T02:27:11;101320.66;;;16.68;88.38
4528;BME280;62320;51.520;6.818;2022-07-23T02:32:12;101325.81;;;16.72;87.51
4528;BME280;62320;51.520;6.818;2022-07-23T02:37:14;101317.13;;;16.70;84.44
4528;BME280;62320;51.520;6.818;2022-07-23T02:42:15;101316.38;;;16.64;88.59
4528;BME280;62320;51.520;6.818;2022-07-23T02:47:17;101295.59;;;16.56;83.36
4528;BME280;62320;51.520;6.818;2022-07-23T02:52:18;101313.91;;;16.55;84.38
4528;BME280;62320;51.520;6.818;2022-07-23T02:57:20;101311.31;;;16.55;87.20
4528;BME280;62320;51.520;6.818;2022-07-23T03:02:22;101319.31;;;16.41;89.24
4528;BME280;62320;51.520;6.818;2022-07-23T03:07:24;101315.09;;;16.31;88.23
4528;BME280;62320;51.520;6.818;2022-07-23T03:12:26;101322.09;;;16.29;88.16
4528;BME280;62320;51.520;6.818;2022-07-23T03:17:27;101317.84;;;16.23;89.84
4528;BME280;62320;51.520;6.818;2022-07-23T03:22:28;101321.44;;;16.15;90.46
4528;BME280;62320;51.520;6.818;2022-07-23T03:27:30;101317.00;;;16.20;85.25
4528;BME280;62320;51.520;6.818;2022-07-23T03:32:31;101298.22;;;15.97;86.58
4528;BME280;62320;51.520;6.818;2022-07-23T03:37:33;101294.78;;;15.93;87.92
4528;BME280;62320;51.520;6.818;2022-07-23T03:42:34;101320.00;;;15.94;89.92
4528;BME280;62320;51.520;6.818;2022-07-23T03:47:38;101312.34;;;15.81;89.16
4528;BME280;62320;51.520;6.818;2022-07-23T03:52:40;101296.66;;;15.82;85.40
4528;BME280;62320;51.520;6.818;2022-07-23T03:57:42;101311.44;;;15.83;86.30
4528;BME280;62320;51.520;6.818;2022-07-23T04:02:43;101314.88;;;15.87;82.72
4528;BME280;62320;51.520;6.818;2022-07-23T04:07:45;101339.22;;;15.87;82.66
4528;BME280;62320;51.520;6.818;2022-07-23T04:12:46;101326.34;;;15.72;87.95
4528;BME280;62320;51.520;6.818;2022-07-23T04:17:48;101326.44;;;15.63;90.08
4528;BME280;62320;51.520;6.818;2022-07-23T04:22:49;101331.66;;;15.63;86.95
4528;BME280;62320;51.520;6.818;2022-07-23T04:27:52;101334.25;;;15.63;87.04
4528;BME280;62320;51.520;6.818;2022-07-23T04:32:53;101320.53;;;15.50;87.65
4528;BME280;62320;51.520;6.818;2022-07-23T04:37:54;101348.25;;;15.57;87.78
4528;BME280;62320;51.520;6.818;2022-07-23T04:42:56;101351.53;;;15.76;83.21
4528;BME280;62320;51.520;6.818;2022-07-23T04:47:57;101351.47;;;15.79;85.08
4528;BME280;62320;51.520;6.818;2022-07-23T04:52:59;101359.09;;;15.96;87.82
4528;BME280;62320;51.520;6.818;2022-07-23T04:58:00;101359.00;;;16.02;84.69
4528;BME280;62320;51.520;6.818;2022-07-23T05:03:02;101361.41;;;16.18;84.89
4528;BME280;62320;51.520;6.818;2022-07-23T05:08:04;101365.66;;;16.25;86.85
4528;BME280;62320;51.520;6.818;2022-07-23T05:13:05;101380.34;;;16.32;87.42
4528;BME280;62320;51.520;6.818;2022-07-23T05:18:07;101374.28;;;16.29;83.22
4528;BME280;62320;51.520;6.818;2022-07-23T05:23:08;101385.34;;;16.51;87.19
4528;BME280;62320;51.520;6.818;2022-07-23T05:28:10;101365.38;;;16.45;87.31
4528;BME280;62320;51.520;6.818;2022-07-23T05:33:11;101389.53;;;16.62;86.23
4528;BME280;62320;51.520;6.818;2022-07-23T05:38:13;101386.00;;;16.63;85.84
4528;BME280;62320;51.520;6.818;2022-07-23T05:43:14;101404.13;;;16.75;84.41
4528;BME280;62320;51.520;6.818;2022-07-23T05:48:15;101387.34;;;16.88;86.51
4528;BME280;62320;51.520;6.818;2022-07-23T05:53:17;101397.50;;;17.06;86.18
4528;BME280;62320;51.520;6.818;2022-07-23T05:58:18;101361.03;;;17.00;87.84
4528;BME280;62320;51.520;6.818;2022-07-23T06:03:20;101403.94;;;17.39;86.02
4528;BME280;62320;51.520;6.818;2022-07-23T06:08:21;101407.88;;;17.63;85.98
4528;BME280;62320;51.520;6.818;2022-07-23T06:13:23;101405.81;;;17.80;84.88
4528;BME280;62320;51.520;6.818;2022-07-23T06:18:24;101415.81;;;18.03;84.99
4528;BME280;62320;51.520;6.818;2022-07-23T06:23:26;101425.03;;;18.20;82.91
4528;BME280;62320;51.520;6.818;2022-07-23T06:28:27;101432.13;;;18.58;86.56
4528;BME280;62320;51.520;6.818;2022-07-23T06:33:29;101424.28;;;18.58;84.90
4528;BME280;62320;51.520;6.818;2022-07-23T06:38:30;101427.84;;;18.91;83.88
4528;BME280;62320;51.520;6.818;2022-07-23T06:43:32;101438.94;;;19.03;80.65
4528;BME280;62320;51.520;6.818;2022-07-23T06:48:34;101431.88;;;19.41;81.68
4528;BME280;62320;51.520;6.818;2022-07-23T06:53:38;101424.66;;;19.50;81.76
4528;BME280;62320;51.520;6.818;2022-07-23T06:58:39;101436.50;;;19.65;80.58
4528;BME280;62320;51.520;6.818;2022-07-23T07:03:41;101430.88;;;19.78;79.75
4528;BME280;62320;51.520;6.818;2022-07-23T07:08:42;101442.22;;;19.79;77.85
4528;BME280;62320;51.520;6.818;2022-07-23T07:13:44;101437.34;;;19.98;78.07
4528;BME280;62320;51.520;6.818;2022-07-23T07:18:46;101440.84;;;20.29;77.18
4528;BME280;62320;51.520;6.818;2022-07-23T07:23:47;101443.47;;;20.29;76.60
4528;BME280;62320;51.520;6.818;2022-07-23T07:28:49;101447.59;;;20.37;75.01
4528;BME280;62320;51.520;6.818;2022-07-23T07:33:51;101460.94;;;20.59;73.45
4528;BME280;62320;51.520;6.818;2022-07-23T07:38:52;101452.50;;;20.77;73.88
4528;BME280;62320;51.520;6.818;2022-07-23T07:43:54;101455.34;;;20.71;72.58
4528;BME280;62320;51.520;6.818;2022-07-23T07:48:55;101459.50;;;20.78;73.13
4528;BME280;62320;51.520;6.818;2022-07-23T07:53:59;101452.59;;;20.74;71.94
4528;BME280;62320;51.520;6.818;2022-07-23T07:59:01;101459.88;;;20.94;68.19
4528;BME280;62320;51.520;6.818;2022-07-23T08:04:03;101483.72;;;21.17;70.59
4528;BME280;62320;51.520;6.818;2022-07-23T08:09:05;101487.66;;;21.30;71.21
4528;BME280;62320;51.520;6.818;2022-07-23T08:14:07;101475.16;;;21.37;70.54
4528;BME280;62320;51.520;6.818;2022-07-23T08:19:10;101491.16;;;21.30;68.55
4528;BME280;62320;51.520;6.818;2022-07-23T08:24:11;101494.81;;;21.25;65.75
4528;BME280;62320;51.520;6.818;2022-07-23T08:29:12;101483.06;;;21.37;65.14
4528;BME280;62320;51.520;6.818;2022-07-23T08:34:14;101491.81;;;21.37;64.72
4528;BME280;62320;51.520;6.818;2022-07-23T08:39:15;101495.88;;;21.72;66.31
4528;BME280;62320;51.520;6.818;2022-07-23T08:44:17;101495.22;;;21.65;66.09
4528;BME280;62320;51.520;6.818;2022-07-23T08:49:18;101490.28;;;21.30;66.57
4528;BME280;62320;51.520;6.818;2022-07-23T08:54:21;101489.97;;;21.65;65.08
4528;BME280;62320;51.520;6.818;2022-07-23T08:59:23;101477.81;;;21.61;62.52
4528;BME280;62320;51.520;6.818;2022-07-23T09:04:24;101479.38;;;21.93;64.56
4528;BME280;62320;51.520;6.818;2022-07-23T09:09:28;101493.44;;;21.66;61.27
4528;BME280;62320;51.520;6.818;2022-07-23T09:14:42;101504.41;;;22.05;64.63
4528;BME280;62320;51.520;6.818;2022-07-23T09:19:45;101499.16;;;22.05;62.76
4528;BME280;62320;51.520;6.818;2022-07-23T09:25:08;101496.50;;;22.05;62.39
4528;BME280;62320;51.520;6.818;2022-07-23T09:30:10;101489.53;;;22.27;62.30
4528;BME280;62320;51.520;6.818;2022-07-23T09:35:11;101496.94;;;21.92;60.86
4528;BME280;62320;51.520;6.818;2022-07-23T09:40:13;101489.03;;;22.40;61.90
4528;BME280;62320;51.520;6.818;2022-07-23T09:45:17;101503.63;;;22.49;63.11
4528;BME280;62320;51.520;6.818;2022-07-23T09:50:19;101495.03;;;22.21;58.45
4528;BME280;62320;51.520;6.818;2022-07-23T09:55:32;101484.13;;;22.07;58.11
4528;BME280;62320;51.520;6.818;2022-07-23T10:00:40;101502.63;;;22.30;60.24
4528;BME280;62320;51.520;6.818;2022-07-23T10:05:42;101504.47;;;22.51;60.41
4528;BME280;62320;51.520;6.818;2022-07-23T10:10:46;101500.22;;;22.70;61.85
4528;BME280;62320;51.520;6.818;2022-07-23T10:15:48;101509.00;;;22.70;58.04
4528;BME280;62320;51.520;6.818;2022-07-23T10:20:50;101493.91;;;22.74;61.57
4528;BME280;62320;51.520;6.818;2022-07-23T10:25:59;101494.75;;;22.98;61.35
4528;BME280;62320;51.520;6.818;2022-07-23T10:36:52;101473.94;;;22.90;61.36
4528;BME280;62320;51.520;6.818;2022-07-23T10:47:10;101481.13;;;22.87;60.36
4528;BME280;62320;51.520;6.818;2022-07-23T10:52:34;101471.81;;;22.78;58.87
4528;BME280;62320;51.520;6.818;2022-07-23T10:57:48;101475.53;;;22.73;58.46
4528;BME280;62320;51.520;6.818;2022-07-23T11:02:52;101488.78;;;22.93;57.27
4528;BME280;62320;51.520;6.818;2022-07-23T11:34:38;101481.97;;;23.09;57.40
4528;BME280;62320;51.520;6.818;2022-07-23T11:39:40;101482.53;;;22.95;54.11
4528;BME280;62320;51.520;6.818;2022-07-23T11:44:46;101475.84;;;22.87;55.78
4528;BME280;62320;51.520;6.818;2022-07-23T11:49:57;101489.91;;;23.09;57.12
4528;BME280;62320;51.520;6.818;2022-07-23T11:55:07;101483.03;;;23.05;53.38
4528;BME280;62320;51.520;6.818;2022-07-23T12:00:10;101490.84;;;23.08;52.62
4528;BME280;62320;51.520;6.818;2022-07-23T12:05:14;101480.22;;;23.09;55.99
4528;BME280;62320;51.520;6.818;2022-07-23T12:10:19;101478.66;;;23.04;54.41
4528;BME280;62320;51.520;6.818;2022-07-23T12:15:23;101465.25;;;23.10;56.93
4528;BME280;62320;51.520;6.818;2022-07-23T12:20:29;101459.28;;;23.05;53.28
4528;BME280;62320;51.520;6.818;2022-07-23T12:25:36;101464.97;;;23.16;54.99
4528;BME280;62320;51.520;6.818;2022-07-23T12:30:41;101465.31;;;23.28;55.12
4528;BME280;62320;51.520;6.818;2022-07-23T12:35:45;101455.59;;;23.30;52.35
4528;BME280;62320;51.520;6.818;2022-07-23T12:40:48;101462.56;;;23.31;56.50
4528;BME280;62320;51.520;6.818;2022-07-23T12:46:04;101472.88;;;23.37;57.20
4528;BME280;62320;51.520;6.818;2022-07-23T12:51:07;101443.31;;;23.29;55.32
4528;BME280;62320;51.520;6.818;2022-07-23T13:01:32;101468.66;;;23.55;53.98
4528;BME280;62320;51.520;6.818;2022-07-23T13:11:41;101470.41;;;23.75;52.80
4528;BME280;62320;51.520;6.818;2022-07-23T13:16:45;101468.28;;;23.63;57.38
4528;BME280;62320;51.520;6.818;2022-07-23T13:21:49;101485.34;;;23.76;56.95
4528;BME280;62320;51.520;6.818;2022-07-23T13:26:50;101475.19;;;23.67;58.14
4528;BME280;62320;51.520;6.818;2022-07-23T13:32:12;101469.94;;;23.85;56.32
4528;BME280;62320;51.520;6.818;2022-07-23T13:37:14;101462.19;;;23.82;56.85
4528;BME280;62320;51.520;6.818;2022-07-23T13:42:16;101458.25;;;23.91;57.27
4528;BME280;62320;51.520;6.818;2022-07-23T13:47:17;101447.28;;;24.00;53.13
4528;BME280;62320;51.520;6.818;2022-07-23T13:52:19;101452.91;;;24.13;52.86
4528;BME280;62320;51.520;6.818;2022-07-23T13:57:20;101451.50;;;24.05;56.88
4528;BME280;62320;51.520;6.818;2022-07-23T14:02:22;101437.84;;;24.15;54.76
4528;BME280;62320;51.520;6.818;2022-07-23T14:07:25;101434.69;;;24.06;55.08
4528;BME280;62320;51.520;6.818;2022-07-23T14:12:27;101437.63;;;23.99;55.07
4528;BME280;62320;51.520;6.818;2022-07-23T14:17:40;101444.53;;;24.03;55.30
4528;BME280;62320;51.520;6.818;2022-07-23T14:22:43;101447.56;;;24.14;55.92
4528;BME280;62320;51.520;6.818;2022-07-23T14:27:45;101441.50;;;24.12;54.20
4528;BME280;62320;51.520;6.818;2022-07-23T14:32:46;101444.56;;;24.22;55.56
4528;BME280;62320;51.520;6.818;2022-07-23T14:37:48;101435.41;;;24.29;55.03
4528;BME280;62320;51.520;6.818;2022-07-23T14:42:49;101433.56;;;24.31;53.25
4528;BME280;62320;51.520;6.818;2022-07-23T14:47:51;101443.13;;;24.33;55.54
4528;BME280;62320;51.520;6.818;2022-07-23T14:52:53;101435.00;;;24.38;56.03
4528;BME280;62320;51.520;6.818;2022-07-23T14:57:54;101446.78;;;24.49;53.87
4528;BME280;62320;51.520;6.818;2022-07-23T15:02:56;101434.72;;;24.44;56.66
4528;BME280;62320;51.520;6.818;2022-07-23T15:07:58;101431.56;;;24.54;52.53
4528;BME280;62320;51.520;6.818;2022-07-23T15:13:00;101434.94;;;24.39;54.83
4528;BME280;62320;51.520;6.818;2022-07-23T15:18:02;101423.50;;;24.39;55.01
4528;BME280;62320;51.520;6.818;2022-07-23T15:23:06;101434.56;;;24.47;54.41
4528;BME280;62320;51.520;6.818;2022-07-23T15:28:10;101435.56;;;24.44;54.71
4528;BME280;62320;51.520;6.818;2022-07-23T15:33:12;101435.13;;;24.72;51.53
4528;BME280;62320;51.520;6.818;2022-07-23T15:38:33;101404.91;;;24.40;53.97
4528;BME280;62320;51.520;6.818;2022-07-23T15:43:35;101442.13;;;24.73;50.60
4528;BME280;62320;51.520;6.818;2022-07-23T15:48:37;101446.94;;;24.84;49.10
4528;BME280;62320;51.520;6.818;2022-07-23T15:53:38;101421.25;;;24.67;53.40
4528;BME280;62320;51.520;6.818;2022-07-23T15:58:40;101421.44;;;24.83;53.28
4528;BME280;62320;51.520;6.818;2022-07-23T16:03:41;101426.50;;;24.87;49.99
4528;BME280;62320;51.520;6.818;2022-07-23T16:08:45;101415.19;;;24.84;53.02
4528;BME280;62320;51.520;6.818;2022-07-23T16:13:46;101426.63;;;24.84;54.29
4528;BME280;62320;51.520;6.818;2022-07-23T16:18:48;101426.28;;;24.92;49.70
4528;BME280;62320;51.520;6.818;2022-07-23T16:23:52;101418.91;;;24.79;54.02
4528;BME280;62320;51.520;6.818;2022-07-23T16:28:53;101401.91;;;24.85;53.67
4528;BME280;62320;51.520;6.818;2022-07-23T16:33:54;101422.22;;;24.85;52.33
4528;BME280;62320;51.520;6.818;2022-07-23T16:38:56;101402.19;;;24.79;52.79
4528;BME280;62320;51.520;6.818;2022-07-23T16:44:06;101402.03;;;24.82;50.67
4528;BME280;62320;51.520;6.818;2022-07-23T16:49:08;101408.34;;;24.79;53.08
4528;BME280;62320;51.520;6.818;2022-07-23T16:54:10;101405.34;;;24.87;48.80
4528;BME280;62320;51.520;6.818;2022-07-23T16:59:11;101421.81;;;24.92;48.04
4528;BME280;62320;51.520;6.818;2022-07-23T17:04:13;101414.41;;;24.82;51.48
4528;BME280;62320;51.520;6.818;2022-07-23T17:09:14;101418.63;;;24.86;51.45
4528;BME280;62320;51.520;6.818;2022-07-23T17:14:16;101427.09;;;24.92;52.94
4528;BME280;62320;51.520;6.818;2022-07-23T17:19:17;101415.03;;;24.87;53.88
4528;BME280;62320;51.520;6.818;2022-07-23T17:24:19;101425.28;;;24.94;49.42
4528;BME280;62320;51.520;6.818;2022-07-23T17:29:21;101420.00;;;24.75;48.99
4528;BME280;62320;51.520;6.818;2022-07-23T17:34:23;101390.81;;;24.58;52.25
4528;BME280;62320;51.520;6.818;2022-07-23T17:39:24;101419.69;;;24.82;52.91
4528;BME280;62320;51.520;6.818;2022-07-23T17:44:26;101413.63;;;24.79;52.54
4528;BME280;62320;51.520;6.818;2022-07-23T17:49:27;101412.94;;;24.76;53.09
4528;BME280;62320;51.520;6.818;2022-07-23T17:54:30;101415.81;;;24.70;52.88
4528;BME280;62320;51.520;6.818;2022-07-23T17:59:31;101414.13;;;24.69;50.98
4528;BME280;62320;51.520;6.818;2022-07-23T18:04:33;101407.19;;;24.66;50.06
4528;BME280;62320;51.520;6.818;2022-07-23T18:09:34;101402.41;;;24.56;52.82
4528;BME280;62320;51.520;6.818;2022-07-23T18:14:36;101428.72;;;24.59;50.57
4528;BME280;62320;51.520;6.818;2022-07-23T18:19:37;101426.19;;;24.56;53.34
4528;BME280;62320;51.520;6.818;2022-07-23T18:24:39;101413.78;;;24.39;54.12
4528;BME280;62320;51.520;6.818;2022-07-23T18:29:40;101435.13;;;24.53;51.30
4528;BME280;62320;51.520;6.818;2022-07-23T18:34:42;101423.81;;;24.33;51.58
4528;BME280;62320;51.520;6.818;2022-07-23T18:39:44;101443.88;;;24.37;52.60
4528;BME280;62320;51.520;6.818;2022-07-23T18:44:45;101426.13;;;24.20;54.05
4528;BME280;62320;51.520;6.818;2022-07-23T18:49:47;101444.84;;;24.16;54.78
4528;BME280;62320;51.520;6.818;2022-07-23T18:54:48;101431.19;;;24.06;54.46
4528;BME280;62320;51.520;6.818;2022-07-23T18:59:50;101425.91;;;24.06;54.40
4528;BME280;62320;51.520;6.818;2022-07-23T19:04:51;101429.78;;;23.97;54.66
4528;BME280;62320;51.520;6.818;2022-07-23T19:09:53;101446.50;;;23.98;55.26
4528;BME280;62320;51.520;6.818;2022-07-23T19:14:54;101437.34;;;23.86;55.55
4528;BME280;62320;51.520;6.818;2022-07-23T19:19:56;101431.59;;;23.77;55.90
4528;BME280;62320;51.520;6.818;2022-07-23T19:24:57;101442.56;;;23.68;55.73
4528;BME280;62320;51.520;6.818;2022-07-23T19:29:59;101445.59;;;23.59;55.56
4528;BME280;62320;51.520;6.818;2022-07-23T19:35:00;101452.91;;;23.52;56.15
4528;BME280;62320;51.520;6.818;2022-07-23T19:40:03;101444.53;;;23.42;56.13
4528;BME280;62320;51.520;6.818;2022-07-23T19:45:08;101444.16;;;23.30;56.13
4528;BME280;62320;51.520;6.818;2022-07-23T19:50:11;101466.19;;;23.29;56.71
4528;BME280;62320;51.520;6.818;2022-07-23T19:55:13;101466.94;;;23.11;57.29
4528;BME280;62320;51.520;6.818;2022-07-23T20:00:15;101477.00;;;23.01;58.10
4528;BME280;62320;51.520;6.818;2022-07-23T20:05:18;101479.56;;;22.81;58.65
4528;BME280;62320;51.520;6.818;2022-07-23T20:10:19;101471.03;;;22.75;57.76
4528;BME280;62320;51.520;6.818;2022-07-23T20:15:21;101473.72;;;22.50;60.03
4528;BME280;62320;51.520;6.818;2022-07-23T20:20:23;101479.19;;;22.45;60.35
4528;BME280;62320;51.520;6.818;2022-07-23T20:25:24;101479.34;;;22.41;60.53
4528;BME280;62320;51.520;6.818;2022-07-23T20:30:26;101480.09;;;22.44;59.85
4528;BME280;62320;51.520;6.818;2022-07-23T20:35:27;101475.22;;;22.34;60.18
4528;BME280;62320;51.520;6.818;2022-07-23T20:40:29;101483.31;;;22.29;61.77
4528;BME280;62320;51.520;6.818;2022-07-23T20:45:31;101475.19;;;22.11;60.22
4528;BME280;62320;51.520;6.818;2022-07-23T20:50:32;101484.31;;;22.02;61.88
4528;BME280;62320;51.520;6.818;2022-07-23T20:55:34;101476.72;;;21.93;61.96
4528;BME280;62320;51.520;6.818;2022-07-23T21:00:36;101490.13;;;21.87;61.11
4528;BME280;62320;51.520;6.818;2022-07-23T21:05:38;101495.78;;;21.75;61.05
4528;BME280;62320;51.520;6.818;2022-07-23T21:10:39;101462.34;;;21.52;60.01
4528;BME280;62320;51.520;6.818;2022-07-23T21:15:40;101489.78;;;21.70;59.05
4528;BME280;62320;51.520;6.818;2022-07-23T21:20:42;101478.13;;;21.52;59.94
4528;BME280;62320;51.520;6.818;2022-07-23T21:26:03;101490.34;;;21.55;60.04
4528;BME280;62320;51.520;6.818;2022-07-23T21:31:25;101469.97;;;21.35;60.11
4528;BME280;62320;51.520;6.818;2022-07-23T21:36:27;101493.47;;;21.40;60.44
4528;BME280;62320;51.520;6.818;2022-07-23T21:41:35;101498.91;;;21.35;60.23
4528;BME280;62320;51.520;6.818;2022-07-23T21:46:37;101500.81;;;21.30;60.05
4528;BME280;62320;51.520;6.818;2022-07-23T21:51:38;101487.91;;;21.22;61.46
4528;BME280;62320;51.520;6.818;2022-07-23T21:56:41;101464.84;;;21.03;61.41
4528;BME280;62320;51.520;6.818;2022-07-23T22:01:42;101485.56;;;21.13;60.79
4528;BME280;62320;51.520;6.818;2022-07-23T22:06:44;101498.03;;;21.07;62.70
4528;BME280;62320;51.520;6.818;2022-07-23T22:11:45;101485.25;;;20.95;61.72
4528;BME280;62320;51.520;6.818;2022-07-23T22:16:47;101487.94;;;20.93;62.05
4528;BME280;62320;51.520;6.818;2022-07-23T22:21:48;101492.31;;;20.93;61.92
4528;BME280;62320;51.520;6.818;2022-07-23T22:26:50;101501.81;;;20.97;61.42
4528;BME280;62320;51.520;6.818;2022-07-23T22:31:51;101488.00;;;20.90;61.83
4528;BME280;62320;51.520;6.818;2022-07-23T22:36:53;101505.66;;;20.87;61.43
4528;BME280;62320;51.520;6.818;2022-07-23T22:41:54;101495.38;;;20.79;62.35
4528;BME280;62320;51.520;6.818;2022-07-23T22:46:55;101494.66;;;20.74;64.01
4528;BME280;62320;51.520;6.818;2022-07-23T22:51:57;101492.06;;;20.73;61.90
4528;BME280;62320;51.520;6.818;2022-07-23T22:56:59;101491.06;;;20.77;61.97
4528;BME280;62320;51.520;6.818;2022-07-23T23:02:00;101487.00;;;20.67;63.53
4528;BME280;62320;51.520;6.818;2022-07-23T23:07:02;101480.03;;;20.66;62.60
4528;BME280;62320;51.520;6.818;2022-07-23T23:12:04;101471.41;;;20.60;63.21
4528;BME280;62320;51.520;6.818;2022-07-23T23:17:06;101482.78;;;20.61;64.32
4528;BME280;62320;51.520;6.818;2022-07-23T23:22:07;101478.59;;;20.55;63.10
4528;BME280;62320;51.520;6.818;2022-07-23T23:27:09;101486.41;;;20.57;62.63
4528;BME280;62320;51.520;6.818;2022-07-23T23:32:11;101495.25;;;20.54;62.20
4528;BME280;62320;51.520;6.818;2022-07-23T23:37:12;101486.75;;;20.46;63.47
4528;BME280;62320;51.520;6.818;2022-07-23T23:42:14;101477.31;;;20.39;63.76
4528;BME280;62320;51.520;6.818;2022-07-23T23:47:15;101463.53;;;20.31;63.47
4528;BME280;62320;51.520;6.818;2022-07-23T23:52:17;101469.50;;;20.36;64.90
4528;BME280;62320;51.520;6.818;2022-07-23T23:57:18;101469.69;;;20.30;64.26
